createdAt,value
2022-12-05T00:01:35.351Z,30.97
2022-12-05T00:04:07.800Z,30.70
2022-12-05T00:06:37.522Z,31.83
2022-12-05T00:09:07.185Z,31.20
2022-12-05T00:11:40.137Z,32.63
2022-12-05T00:14:09.822Z,30.47
2022-12-05T00:16:40.238Z,31.90
2022-12-05T00:19:10.631Z,29.97
2022-12-05T00:21:38.673Z,30.43
2022-12-05T00:24:08.746Z,30.33
2022-12-05T00:26:36.401Z,31.37
2022-12-05T00:29:03.806Z,33.27
2022-12-05T00:31:31.069Z,31.93
2022-12-05T00:34:01.797Z,33.40
2022-12-05T00:36:32.272Z,31.97
2022-12-05T00:39:02.027Z,32.00
2022-12-05T00:41:30.050Z,34.27
2022-12-05T00:44:00.421Z,33.00
2022-12-05T00:46:29.783Z,32.33
2022-12-05T00:48:58.640Z,32.10
2022-12-05T00:51:30.841Z,32.30
2022-12-05T00:54:03.362Z,31.33
2022-12-05T00:56:32.609Z,32.90
2022-12-05T00:59:01.557Z,32.83
2022-12-05T01:01:33.168Z,33.13
2022-12-05T01:04:06.256Z,31.90
2022-12-05T01:06:34.073Z,30.40
2022-12-05T01:09:02.048Z,31.80
2022-12-05T01:11:30.263Z,30.13
2022-12-05T01:13:58.809Z,31.13
2022-12-05T01:16:34.103Z,29.83
2022-12-05T01:19:05.717Z,28.47
2022-12-05T01:21:33.981Z,29.47
2022-12-05T01:24:01.515Z,27.60
2022-12-05T01:26:29.043Z,27.00
2022-12-05T01:28:56.849Z,27.83
2022-12-05T01:31:31.812Z,27.63
2022-12-05T01:34:02.222Z,25.80
2022-12-05T01:36:30.279Z,24.73
2022-12-05T01:38:58.760Z,25.00
2022-12-05T01:41:30.829Z,22.93
2022-12-05T01:44:13.427Z,23.03
2022-12-05T01:46:48.592Z,23.17
2022-12-05T01:49:21.185Z,23.33
2022-12-05T01:51:55.877Z,21.87
2022-12-05T01:54:24.087Z,23.60
2022-12-05T01:56:57.446Z,23.03
2022-12-05T01:59:27.295Z,22.47
2022-12-05T02:01:55.162Z,23.13
2022-12-05T02:04:23.097Z,20.87
2022-12-05T02:06:50.498Z,22.40
2022-12-05T02:09:17.949Z,23.10
2022-12-05T02:11:58.715Z,22.03
2022-12-05T02:14:51.973Z,22.87
2022-12-05T02:17:28.334Z,23.23
2022-12-05T02:20:04.796Z,23.77
2022-12-05T02:23:29.246Z,24.73
2022-12-05T02:25:59.824Z,25.47
2022-12-05T02:28:53.292Z,25.27
2022-12-05T02:31:36.581Z,23.67
2022-12-05T02:34:17.164Z,23.57
2022-12-05T02:37:08.805Z,23.13
2022-12-05T02:39:52.117Z,23.83
2022-12-05T02:42:47.104Z,25.70
2022-12-05T02:45:17.773Z,23.93
2022-12-05T02:47:50.547Z,23.37
2022-12-05T02:50:28.039Z,22.67
2022-12-05T02:53:01.353Z,23.53
2022-12-05T02:55:33.135Z,23.00
2022-12-05T02:58:06.349Z,24.40
2022-12-05T03:00:39.322Z,22.87
2022-12-05T03:03:19.400Z,23.73
2022-12-05T03:06:13.698Z,24.03
2022-12-05T03:08:48.632Z,22.87
2022-12-05T03:11:16.397Z,23.00
2022-12-05T03:13:53.409Z,22.83
2022-12-05T03:16:31.570Z,21.57
2022-12-05T03:19:10.245Z,22.47
2022-12-05T03:21:47.836Z,21.10
2022-12-05T03:24:16.494Z,22.40
2022-12-05T03:27:03.414Z,22.57
2022-12-05T03:29:51.924Z,21.23
2022-12-05T03:32:55.151Z,22.03
2022-12-05T03:35:48.809Z,20.73
2022-12-05T03:38:55.990Z,21.67
2022-12-05T03:41:51.730Z,21.17
2022-12-05T03:44:39.001Z,22.83
2022-12-05T03:47:32.731Z,21.73
2022-12-05T03:50:12.375Z,23.17
2022-12-05T03:53:18.014Z,23.20
2022-12-05T03:55:39.178Z,21.87
2022-12-05T03:58:14.410Z,22.73
2022-12-05T04:00:46.506Z,22.73
2022-12-05T04:03:47.704Z,23.17
2022-12-05T04:06:27.836Z,22.57
2022-12-05T04:09:01.948Z,23.03
2022-12-05T04:11:35.116Z,23.77
2022-12-05T04:14:11.775Z,24.33
2022-12-05T04:17:06.188Z,24.83
2022-12-05T04:20:02.817Z,25.37
2022-12-05T04:22:30.295Z,25.47
2022-12-05T04:25:18.856Z,26.17
2022-12-05T04:27:55.141Z,24.77
2022-12-05T04:30:26.647Z,25.83
2022-12-05T04:33:02.896Z,24.63
2022-12-05T04:35:42.385Z,24.37
2022-12-05T04:38:17.575Z,24.40
2022-12-05T04:41:03.057Z,24.90
2022-12-05T04:43:35.682Z,26.03
2022-12-05T04:46:08.248Z,26.13
2022-12-05T04:48:41.225Z,25.97
2022-12-05T04:51:15.263Z,24.60
2022-12-05T04:53:45.728Z,24.77
2022-12-05T04:56:20.224Z,26.57
2022-12-05T04:58:47.897Z,25.77
2022-12-05T05:01:28.113Z,26.70
2022-12-05T05:04:10.156Z,24.40
2022-12-05T05:06:40.083Z,25.30
2022-12-05T05:09:08.090Z,25.60
2022-12-05T05:11:36.423Z,24.03
2022-12-05T05:14:04.644Z,23.83
2022-12-05T05:16:39.169Z,24.70
2022-12-05T05:19:08.601Z,24.33
2022-12-05T05:21:42.091Z,25.73
2022-12-05T05:24:12.108Z,24.27
2022-12-05T05:26:42.819Z,25.23
2022-12-05T05:29:11.387Z,24.80
2022-12-05T05:31:40.247Z,25.80
2022-12-05T05:34:10.005Z,25.23
2022-12-05T05:36:38.548Z,26.13
2022-12-05T05:39:12.517Z,23.60
2022-12-05T05:41:39.904Z,24.80
2022-12-05T05:44:07.659Z,25.37
2022-12-05T05:46:37.750Z,26.20
2022-12-05T05:49:05.916Z,26.47
2022-12-05T05:51:33.857Z,23.97
2022-12-05T05:54:02.068Z,25.60
2022-12-05T05:56:30.377Z,25.53
2022-12-05T05:59:01.973Z,23.87
2022-12-05T06:01:30.578Z,26.27
2022-12-05T06:03:59.248Z,24.03
2022-12-05T06:06:27.677Z,23.70
2022-12-05T06:08:55.442Z,24.50
2022-12-05T06:11:27.210Z,24.70
2022-12-05T06:14:03.327Z,26.43
2022-12-05T06:16:32.243Z,25.60
2022-12-05T06:19:00.050Z,24.97
2022-12-05T06:21:28.004Z,25.43
2022-12-05T06:23:55.778Z,27.10
2022-12-05T06:26:23.661Z,25.80
2022-12-05T06:28:51.175Z,25.13
2022-12-05T06:31:23.106Z,25.03
2022-12-05T06:33:50.875Z,26.97
2022-12-05T06:36:21.834Z,24.07
2022-12-05T06:38:49.981Z,24.57
2022-12-05T06:41:20.234Z,23.67
2022-12-05T06:43:48.133Z,25.23
2022-12-05T06:46:16.611Z,24.90
2022-12-05T06:48:44.446Z,23.43
2022-12-05T06:51:15.020Z,25.03
2022-12-05T06:53:43.948Z,26.13
2022-12-05T06:56:15.461Z,24.13
2022-12-05T06:58:49.214Z,25.40
2022-12-05T07:01:39.260Z,25.40
2022-12-05T07:04:13.318Z,23.67
2022-12-05T07:06:49.906Z,22.43
2022-12-05T07:09:20.509Z,24.30
2022-12-05T07:11:49.844Z,23.20
2022-12-05T07:14:39.020Z,24.30
2022-12-05T07:17:05.254Z,22.27
2022-12-05T07:19:32.669Z,23.03
2022-12-05T07:21:59.942Z,23.57
2022-12-05T07:24:29.578Z,24.63
2022-12-05T07:26:57.662Z,25.27
2022-12-05T07:29:24.822Z,25.90
2022-12-05T07:31:54.148Z,24.37
2022-12-05T07:34:21.337Z,22.47
2022-12-05T07:36:48.693Z,24.13
2022-12-05T07:39:16.261Z,23.87
2022-12-05T07:41:43.502Z,25.20
2022-12-05T07:44:16.014Z,24.90
2022-12-05T07:46:43.525Z,25.40
2022-12-05T07:49:10.654Z,27.80
2022-12-05T07:51:38.843Z,26.43
2022-12-05T07:54:06.802Z,27.03
2022-12-05T07:56:34.172Z,26.10
2022-12-05T07:59:01.345Z,27.10
2022-12-05T08:01:29.840Z,25.17
2022-12-05T08:04:15.091Z,26.20
2022-12-05T08:06:42.957Z,25.53
2022-12-05T08:09:10.387Z,26.00
2022-12-05T08:11:37.915Z,25.43
2022-12-05T08:14:07.274Z,27.07
2022-12-05T08:16:35.132Z,26.73
2022-12-05T08:19:07.087Z,26.23
2022-12-05T08:21:35.201Z,26.37
2022-12-05T08:24:06.141Z,27.10
2022-12-05T08:26:35.653Z,25.30
2022-12-05T08:29:13.404Z,24.93
2022-12-05T08:31:49.952Z,27.30
2022-12-05T08:34:19.991Z,24.70
2022-12-05T08:36:47.586Z,26.97
2022-12-05T08:39:17.951Z,24.57
2022-12-05T08:41:46.758Z,27.07
2022-12-05T08:44:18.730Z,26.80
2022-12-05T08:46:49.391Z,25.37
2022-12-05T08:49:17.316Z,26.20
2022-12-05T08:51:45.687Z,26.67
2022-12-05T08:54:13.216Z,25.90
2022-12-05T08:56:40.575Z,23.77
2022-12-05T08:59:07.920Z,25.20
2022-12-05T09:01:38.577Z,23.20
2022-12-05T09:04:07.158Z,23.73
2022-12-05T09:06:36.051Z,23.70
2022-12-05T09:09:07.308Z,21.90
2022-12-05T09:11:38.352Z,22.00
2022-12-05T09:14:06.134Z,21.47
2022-12-05T09:16:38.499Z,20.97
2022-12-05T09:19:28.646Z,20.13
2022-12-05T09:21:56.815Z,104.33
2022-12-05T09:24:24.570Z,21.53
2022-12-05T09:26:52.255Z,22.00
2022-12-05T09:29:19.603Z,22.40
2022-12-05T09:31:49.865Z,22.67
2022-12-05T09:34:18.572Z,24.53
2022-12-05T09:36:55.845Z,22.73
2022-12-05T09:39:25.829Z,22.77
2022-12-05T09:42:19.154Z,23.30
2022-12-05T09:45:08.537Z,21.67
2022-12-05T09:48:01.282Z,23.07
2022-12-05T09:51:00.921Z,21.73
2022-12-05T09:53:39.354Z,23.93
2022-12-05T09:56:23.983Z,24.23
2022-12-05T09:58:53.848Z,25.63
2022-12-05T10:01:54.399Z,23.60
2022-12-05T10:05:03.412Z,23.73
2022-12-05T10:07:51.519Z,23.90
2022-12-05T10:11:03.656Z,21.73
2022-12-05T10:14:25.707Z,23.63
2022-12-05T10:16:56.785Z,23.37
2022-12-05T10:19:39.980Z,24.10
2022-12-05T10:22:18.898Z,21.90
2022-12-05T10:25:04.738Z,23.37
2022-12-05T10:27:40.472Z,22.97
2022-12-05T10:30:23.917Z,24.50
2022-12-05T10:32:59.269Z,23.37
2022-12-05T10:35:39.161Z,23.23
2022-12-05T10:38:31.378Z,23.63
2022-12-05T10:41:04.863Z,23.30
2022-12-05T10:43:33.847Z,23.47
2022-12-05T10:46:02.893Z,23.60
2022-12-05T10:48:34.179Z,23.67
2022-12-05T10:51:01.743Z,41.70
2022-12-05T10:53:50.879Z,25.47
2022-12-05T10:56:45.483Z,24.50
2022-12-05T10:59:19.885Z,22.47
2022-12-05T11:01:57.730Z,22.93
2022-12-05T11:04:42.373Z,21.03
2022-12-05T11:07:31.843Z,19.93
2022-12-05T11:10:04.020Z,22.00
2022-12-05T11:12:38.825Z,20.57
2022-12-05T11:15:28.183Z,22.93
2022-12-05T11:18:01.691Z,21.47
2022-12-05T11:20:28.799Z,22.63
2022-12-05T11:22:56.850Z,21.10
2022-12-05T11:25:26.341Z,21.03
2022-12-05T11:27:58.352Z,19.57
2022-12-05T11:30:29.987Z,21.33
2022-12-05T11:33:20.415Z,22.53
2022-12-05T11:35:57.704Z,21.03
2022-12-05T11:38:28.533Z,21.10
2022-12-05T11:41:58.609Z,21.77
2022-12-05T11:44:53.443Z,20.03
2022-12-05T11:47:38.693Z,22.10
2022-12-05T11:50:14.995Z,21.03
2022-12-05T11:53:37.449Z,20.50
2022-12-05T11:56:29.220Z,20.50
2022-12-05T11:59:47.468Z,21.90
2022-12-05T12:02:41.717Z,21.43
2022-12-05T12:05:30.846Z,21.40
2022-12-05T12:08:16.091Z,22.33
2022-12-05T12:11:13.758Z,24.03
2022-12-05T12:14:25.109Z,21.57
2022-12-05T12:17:29.800Z,20.30
2022-12-05T12:20:21.808Z,19.67
2022-12-05T12:23:12.647Z,20.93
2022-12-05T12:26:26.894Z,22.53
2022-12-05T12:29:13.137Z,19.47
2022-12-05T12:32:05.127Z,20.30
2022-12-05T12:34:44.110Z,19.50
2022-12-05T12:37:27.530Z,20.93
2022-12-05T12:40:29.087Z,23.67
2022-12-05T12:43:52.601Z,21.60
2022-12-05T12:46:33.885Z,21.03
2022-12-05T12:49:38.875Z,19.80
2022-12-05T12:52:16.073Z,19.57
2022-12-05T12:55:25.153Z,20.67
2022-12-05T12:58:20.959Z,24.33
2022-12-05T13:01:04.061Z,19.47
2022-12-05T13:03:43.453Z,21.00
2022-12-05T13:06:28.795Z,26.00
2022-12-05T13:09:05.364Z,21.47
2022-12-05T13:11:38.470Z,20.33
2022-12-05T13:14:14.557Z,20.00
2022-12-05T13:16:50.396Z,21.17
2022-12-05T13:19:38.362Z,19.40
2022-12-05T13:22:08.889Z,19.90
2022-12-05T13:24:36.824Z,20.73
2022-12-05T13:27:14.195Z,19.67
2022-12-05T13:30:01.713Z,20.23
2022-12-05T13:32:41.153Z,20.47
2022-12-05T13:35:12.678Z,21.37
2022-12-05T13:38:06.730Z,21.43
2022-12-05T13:40:56.699Z,19.90
2022-12-05T13:43:29.191Z,24.37
2022-12-05T13:45:59.676Z,29.97
2022-12-05T13:48:31.906Z,21.80
2022-12-05T13:51:30.810Z,20.27
2022-12-05T13:54:17.895Z,18.80
2022-12-05T13:56:58.585Z,20.27
2022-12-05T14:00:01.398Z,17.20
2022-12-05T14:02:50.339Z,18.30
2022-12-05T14:05:50.196Z,18.77
2022-12-05T14:08:35.869Z,16.83
2022-12-05T14:11:11.184Z,18.53
2022-12-05T14:13:42.551Z,19.17
2022-12-05T14:16:25.385Z,17.03
2022-12-05T14:19:34.407Z,18.80
2022-12-05T14:22:31.323Z,18.37
2022-12-05T14:26:09.232Z,16.90
2022-12-05T14:28:44.672Z,18.03
2022-12-05T14:31:34.316Z,17.07
2022-12-05T14:34:27.540Z,16.47
2022-12-05T14:36:59.364Z,18.67
2022-12-05T14:39:35.849Z,15.57
2022-12-05T14:42:21.585Z,55.43
2022-12-05T14:44:58.983Z,15.63
2022-12-05T14:47:32.885Z,14.93
2022-12-05T14:50:35.055Z,16.60
2022-12-05T14:53:21.144Z,16.60
2022-12-05T14:55:52.044Z,14.47
2022-12-05T14:58:37.724Z,14.73
2022-12-05T15:01:14.943Z,14.60
2022-12-05T15:04:22.590Z,14.27
2022-12-05T15:07:11.101Z,14.00
2022-12-05T15:10:00.358Z,14.63
2022-12-05T15:12:50.179Z,13.43
2022-12-05T15:15:39.448Z,14.47
2022-12-05T15:18:27.533Z,13.77
2022-12-05T15:21:22.749Z,16.47
2022-12-05T15:23:59.380Z,13.90
2022-12-05T15:26:48.907Z,12.97
2022-12-05T15:29:32.882Z,13.83
2022-12-05T15:32:10.869Z,12.83
2022-12-05T15:35:06.302Z,12.33
2022-12-05T15:38:05.567Z,13.13
2022-12-05T15:40:38.123Z,12.93
2022-12-05T15:43:31.461Z,13.00
2022-12-05T15:46:24.118Z,13.50
2022-12-05T15:49:01.262Z,13.57
2022-12-05T15:51:37.534Z,13.07
2022-12-05T15:54:16.974Z,13.70
2022-12-05T15:57:27.690Z,12.70
2022-12-05T16:00:06.448Z,13.67
2022-12-05T16:03:02.842Z,17.77
2022-12-05T16:05:39.843Z,14.13
2022-12-05T16:08:09.185Z,12.33
2022-12-05T16:10:37.122Z,13.03
2022-12-05T16:13:14.708Z,12.50
2022-12-05T16:15:52.506Z,11.57
2022-12-05T16:18:30.997Z,13.13
2022-12-05T16:20:58.880Z,12.67
2022-12-05T16:23:45.225Z,11.93
2022-12-05T16:26:24.926Z,13.47
2022-12-05T16:29:03.101Z,14.17
2022-12-05T16:31:33.701Z,12.57
2022-12-05T16:34:15.329Z,12.40
2022-12-05T16:36:50.926Z,11.70
2022-12-05T16:39:20.451Z,16.30
2022-12-05T16:41:48.694Z,12.90
2022-12-05T16:44:28.459Z,11.73
2022-12-05T16:46:56.717Z,10.93
2022-12-05T16:49:38.788Z,11.10
2022-12-05T16:52:11.794Z,11.90
2022-12-05T16:54:39.557Z,11.50
2022-12-05T16:57:07.219Z,12.77
2022-12-05T16:59:37.398Z,12.67
2022-12-05T17:02:10.861Z,11.93
2022-12-05T17:04:38.877Z,11.67
2022-12-05T17:07:06.943Z,12.47
2022-12-05T17:09:34.921Z,12.63
2022-12-05T17:12:22.800Z,13.40
2022-12-05T17:14:50.478Z,12.50
2022-12-05T17:17:18.982Z,12.90
2022-12-05T17:19:46.802Z,12.17
2022-12-05T17:22:18.506Z,13.53
2022-12-05T17:24:45.847Z,13.23
2022-12-05T17:27:13.328Z,12.73
2022-12-05T17:29:40.753Z,12.83
2022-12-05T17:32:10.052Z,13.00
2022-12-05T17:34:37.486Z,13.17
2022-12-05T17:37:05.884Z,13.50
2022-12-05T17:39:33.339Z,12.87
2022-12-05T17:42:00.723Z,13.60
2022-12-05T17:44:28.237Z,14.17
2022-12-05T17:46:55.779Z,11.73
2022-12-05T17:49:23.256Z,11.17
2022-12-05T17:52:20.569Z,47.10
2022-12-05T17:54:41.198Z,11.23
2022-12-05T17:57:08.516Z,10.27
2022-12-05T17:59:35.898Z,9.40
2022-12-05T18:02:03.307Z,8.33
2022-12-05T18:04:30.620Z,8.83
2022-12-05T18:06:57.999Z,8.93
2022-12-05T18:09:25.476Z,9.43
2022-12-05T18:11:52.902Z,8.67
2022-12-05T18:14:20.449Z,9.30
2022-12-05T18:16:47.963Z,8.67
2022-12-05T18:19:15.464Z,8.57
2022-12-05T18:21:42.860Z,10.83
2022-12-05T18:24:11.117Z,9.70
2022-12-05T18:26:38.729Z,10.07
2022-12-05T18:29:06.004Z,10.37
2022-12-05T18:31:33.424Z,10.73
2022-12-05T18:34:00.882Z,10.07
2022-12-05T18:36:28.423Z,10.00
2022-12-05T18:38:57.852Z,11.00
2022-12-05T18:41:28.963Z,10.63
2022-12-05T18:43:57.520Z,11.00
2022-12-05T18:46:25.093Z,10.07
2022-12-05T18:48:52.512Z,10.33
2022-12-05T18:51:23.488Z,10.23
2022-12-05T18:53:53.639Z,11.03
2022-12-05T18:56:37.014Z,10.90
2022-12-05T18:59:18.930Z,11.47
2022-12-05T19:01:47.285Z,11.97
2022-12-05T19:04:18.846Z,11.10
2022-12-05T19:06:57.770Z,11.43
2022-12-05T19:09:28.653Z,11.30
2022-12-05T19:12:07.481Z,11.17
2022-12-05T19:14:35.247Z,11.23
2022-12-05T19:17:02.692Z,11.20
2022-12-05T19:19:30.317Z,13.90
2022-12-05T19:21:58.962Z,13.50
2022-12-05T19:24:26.454Z,13.10
2022-12-05T19:26:53.927Z,14.70
2022-12-05T19:29:23.827Z,14.87
2022-12-05T19:31:51.398Z,13.97
2022-12-05T19:34:19.360Z,14.50
2022-12-05T19:36:47.519Z,13.60
2022-12-05T19:39:19.380Z,13.40
2022-12-05T19:41:47.243Z,13.57
2022-12-05T19:44:15.048Z,14.00
2022-12-05T19:46:43.409Z,13.50
2022-12-05T19:49:13.461Z,13.13
2022-12-05T19:51:41.565Z,12.43
2022-12-05T19:54:11.958Z,12.43
2022-12-05T19:56:40.237Z,12.90
2022-12-05T19:59:16.438Z,13.67
2022-12-05T20:01:44.837Z,12.07
2022-12-05T20:04:15.657Z,12.10
2022-12-05T20:06:47.642Z,12.20
2022-12-05T20:09:19.133Z,12.03
2022-12-05T20:11:54.145Z,11.53
2022-12-05T20:14:24.317Z,11.60
2022-12-05T20:16:53.364Z,12.50
2022-12-05T20:19:21.901Z,11.57
2022-12-05T20:21:49.174Z,11.53
2022-12-05T20:24:16.608Z,13.70
2022-12-05T20:26:45.026Z,13.53
2022-12-05T20:29:13.103Z,12.77
2022-12-05T20:31:42.807Z,11.37
2022-12-05T20:34:13.803Z,12.43
2022-12-05T20:36:42.355Z,12.30
2022-12-05T20:39:18.069Z,11.10
2022-12-05T20:41:45.728Z,10.20
2022-12-05T20:44:15.967Z,10.53
2022-12-05T20:46:44.256Z,10.67
2022-12-05T20:49:14.052Z,11.13
2022-12-05T20:51:43.632Z,20.20
2022-12-05T20:54:16.740Z,11.47
2022-12-05T20:56:45.581Z,11.47
2022-12-05T20:59:14.114Z,12.40
2022-12-05T21:01:41.552Z,11.40
2022-12-05T21:04:09.534Z,12.10
2022-12-05T21:06:40.606Z,11.70
2022-12-05T21:09:15.495Z,12.50
2022-12-05T21:11:43.396Z,12.43
2022-12-05T21:14:11.824Z,11.43
2022-12-05T21:16:39.296Z,11.50
2022-12-05T21:19:07.011Z,12.43
2022-12-05T21:21:34.866Z,12.67
2022-12-05T21:24:04.766Z,12.03
2022-12-05T21:26:34.567Z,12.80
2022-12-05T21:29:03.706Z,13.50
2022-12-05T21:31:35.192Z,11.83
2022-12-05T21:34:06.592Z,11.97
2022-12-05T21:36:39.087Z,13.17
2022-12-05T21:39:07.451Z,12.43
2022-12-05T21:41:35.319Z,12.07
2022-12-05T21:44:03.034Z,11.77
2022-12-05T21:46:31.193Z,11.67
2022-12-05T21:48:59.440Z,12.13
2022-12-05T21:51:27.147Z,11.27
2022-12-05T21:53:54.711Z,10.47
2022-12-05T21:56:23.502Z,11.03
2022-12-05T21:58:52.187Z,10.70
2022-12-05T22:01:28.158Z,9.83
2022-12-05T22:03:59.618Z,10.37
2022-12-05T22:06:28.693Z,9.97
2022-12-05T22:08:56.215Z,9.33
2022-12-05T22:11:24.965Z,10.07
2022-12-05T22:13:53.243Z,9.90
2022-12-05T22:16:21.033Z,10.47
2022-12-05T22:18:48.819Z,10.33
2022-12-05T22:21:21.160Z,10.23
2022-12-05T22:23:49.686Z,10.67
2022-12-05T22:26:23.491Z,9.70
2022-12-05T22:28:55.999Z,9.70
2022-12-05T22:31:24.187Z,10.77
2022-12-05T22:33:52.035Z,10.67
2022-12-05T22:36:20.343Z,8.97
2022-12-05T22:38:49.002Z,9.07
2022-12-05T22:41:23.235Z,9.37
2022-12-05T22:43:56.569Z,9.37
2022-12-05T22:46:26.520Z,8.73
2022-12-05T22:48:54.471Z,9.50
2022-12-05T22:51:22.905Z,9.20
2022-12-05T22:53:52.135Z,10.37
2022-12-05T22:56:21.984Z,9.97
2022-12-05T22:58:54.093Z,9.93
2022-12-05T23:01:26.098Z,10.30
2022-12-05T23:04:03.336Z,11.23
2022-12-05T23:06:32.895Z,10.33
2022-12-05T23:09:01.037Z,10.33
2022-12-05T23:11:30.791Z,10.30
2022-12-05T23:14:02.411Z,10.50
2022-12-05T23:16:32.869Z,10.40
2022-12-05T23:19:04.365Z,11.17
2022-12-05T23:21:38.820Z,10.97
2022-12-05T23:24:11.850Z,10.20
2022-12-05T23:26:45.085Z,10.50
2022-12-05T23:29:14.264Z,10.90
2022-12-05T23:31:42.766Z,12.47
2022-12-05T23:34:11.128Z,10.90
2022-12-05T23:36:38.702Z,10.83
2022-12-05T23:39:06.758Z,10.50
2022-12-05T23:41:34.575Z,10.43
2022-12-05T23:44:02.401Z,11.30
2022-12-05T23:46:30.090Z,11.00
2022-12-05T23:48:58.256Z,10.80
2022-12-05T23:51:28.524Z,12.30
2022-12-05T23:53:59.460Z,11.93
2022-12-05T23:56:31.271Z,11.63
2022-12-05T23:58:59.227Z,11.37
